Time;durP1;ratioP1;P1;durP2;ratioP2;P2;SDS_P1;SDS_P2;PMS_P1;PMS_P2;Temp;Humidity;BMP_temperature;BMP_pressure;BME280_temperature;BME280_humidity;BME280_pressure;Samples;Min_cycle;Max_cycle;Signal;HPM_P1;HPM_P2
2023/03/20 00:00:37;;;;;;;12.87;7.17;;;;;5.70;96832.00;;;;5103254;28;20571;-70
2023/03/20 00:03:26;;;;;;;11.40;7.77;;;;;5.50;96832.00;;;;5108057;28;20191;-68
2023/03/20 00:06:18;;;;;;;10.63;7.93;;;;;5.70;96839.00;;;;5102507;28;20202;-68
2023/03/20 00:09:07;;;;;;;14.33;6.93;;;;;5.20;96836.00;;;;5097006;28;20674;-69
2023/03/20 00:11:56;;;;;;;10.27;7.47;;;;;5.40;96840.00;;;;5106073;28;20451;-69
2023/03/20 00:14:45;;;;;;;10.93;7.40;;;;;5.60;96843.00;;;;5110970;28;20288;-68
2023/03/20 00:17:34;;;;;;;9.17;7.50;;;;;5.60;96847.00;;;;5108846;28;20447;-68
2023/03/20 00:20:23;;;;;;;10.37;8.43;;;;;6.00;96842.00;;;;5103333;28;20495;-69
2023/03/20 00:23:15;;;;;;;9.63;8.43;;;;;5.60;96844.00;;;;5110737;28;20482;-69
2023/03/20 00:26:04;;;;;;;8.07;7.33;;;;;5.20;96835.00;;;;5101747;28;20319;-69
2023/03/20 00:28:53;;;;;;;10.07;7.83;;;;;5.50;96845.00;;;;5096792;28;20928;-68
2023/03/20 00:31:42;;;;;;;14.10;8.83;;;;;5.70;96844.00;;;;5097487;28;20518;-68
2023/03/20 00:34:31;;;;;;;8.57;7.50;;;;;5.60;96836.00;;;;5099329;28;20231;-68
2023/03/20 00:37:20;;;;;;;10.87;7.37;;;;;5.30;96825.00;;;;5109297;28;20466;-69
2023/03/20 00:40:12;;;;;;;12.73;7.57;;;;;5.00;96825.00;;;;5102287;28;20480;-69
2023/03/20 00:43:03;;;;;;;10.83;7.57;;;;;4.90;96827.00;;;;5106638;28;20452;-68
2023/03/20 00:45:52;;;;;;;14.00;8.83;;;;;4.80;96829.00;;;;5097100;28;21028;-67
2023/03/20 00:48:42;;;;;;;10.83;7.97;;;;;4.80;96829.00;;;;5097122;28;20440;-67
2023/03/20 00:51:31;;;;;;;14.83;9.57;;;;;5.00;96817.00;;;;5101906;28;21014;-69
2023/03/20 00:54:20;;;;;;;11.67;7.63;;;;;5.20;96826.00;;;;5107908;28;20553;-68
2023/03/20 00:57:14;;;;;;;9.00;7.90;;;;;5.10;96824.00;;;;5101768;28;20856;-68
2023/03/20 01:00:07;;;;;;;10.73;7.73;;;;;5.50;96823.00;;;;5098409;28;20479;-68
2023/03/20 01:02:57;;;;;;;10.50;7.57;;;;;5.70;96824.00;;;;5097317;28;20417;-69
2023/03/20 01:05:48;;;;;;;15.03;8.50;;;;;5.60;96816.00;;;;5096414;28;20482;-68
2023/03/20 01:08:37;;;;;;;25.27;8.17;;;;;5.50;96815.00;;;;5097232;28;20781;-68
2023/03/20 01:11:26;;;;;;;10.60;7.33;;;;;5.20;96816.00;;;;5094340;28;20437;-69
2023/03/20 01:14:16;;;;;;;11.97;6.60;;;;;4.80;96804.00;;;;5099858;28;20553;-69
2023/03/20 01:17:06;;;;;;;12.87;9.03;;;;;4.50;96806.00;;;;5102101;28;20428;-68
2023/03/20 01:19:55;;;;;;;9.87;7.00;;;;;4.50;96808.00;;;;5092135;28;20442;-68
2023/03/20 01:22:44;;;;;;;9.40;8.33;;;;;4.30;96808.00;;;;5097499;28;20410;-68
2023/03/20 01:25:33;;;;;;;9.47;7.53;;;;;4.00;96795.00;;;;5099287;28;20412;-68
2023/03/20 01:28:24;;;;;;;8.53;7.50;;;;;4.50;96810.00;;;;5097732;28;20451;-68
2023/03/20 01:31:15;;;;;;;11.70;8.27;;;;;5.00;96811.00;;;;5093252;28;20441;-68
2023/03/20 01:34:05;;;;;;;11.60;8.97;;;;;4.90;96800.00;;;;5107744;28;20482;-68
2023/03/20 01:36:55;;;;;;;12.33;9.40;;;;;4.80;96807.00;;;;5094800;28;20506;-69
2023/03/20 01:39:44;;;;;;;9.87;8.03;;;;;5.10;96815.00;;;;5105869;28;20513;-68
2023/03/20 01:42:33;;;;;;;12.20;9.17;;;;;5.00;96803.00;;;;5108684;28;20432;-67
2023/03/20 01:45:24;;;;;;;12.10;8.70;;;;;5.10;96804.00;;;;5109056;28;20421;-68
2023/03/20 01:48:16;;;;;;;14.63;7.80;;;;;5.00;96802.00;;;;5105193;28;20515;-68
2023/03/20 01:51:05;;;;;;;9.77;8.20;;;;;5.10;96800.00;;;;5106510;28;21143;-68
2023/03/20 01:53:57;;;;;;;10.53;7.93;;;;;4.90;96800.00;;;;5096913;28;20473;-69
2023/03/20 01:56:48;;;;;;;10.57;7.93;;;;;4.80;96813.00;;;;5096767;28;20434;-68
2023/03/20 01:59:40;;;;;;;9.40;8.03;;;;;4.60;96802.00;;;;5091811;28;20974;-68
2023/03/20 02:02:31;;;;;;;9.47;7.70;;;;;4.00;96802.00;;;;5098795;28;20426;-68
2023/03/20 02:05:23;;;;;;;8.43;7.53;;;;;4.10;96810.00;;;;5101043;28;20425;-69
2023/03/20 02:08:23;;;;;;;10.50;8.57;;;;;4.30;96816.00;;;;5099029;28;20422;-66
2023/03/20 02:11:13;;;;;;;8.83;6.97;;;;;4.40;96814.00;;;;5103932;28;20983;-68
2023/03/20 02:14:02;;;;;;;11.33;7.53;;;;;4.10;96813.00;;;;5103160;28;20460;-67
2023/03/20 02:16:51;;;;;;;14.30;8.57;;;;;4.40;96803.00;;;;5096783;28;20588;-69
2023/03/20 02:19:47;;;;;;;9.70;8.13;;;;;4.90;96809.00;;;;5104589;28;20437;-69
2023/03/20 02:23:28;;;;;;;12.97;8.93;;;;;5.30;96812.00;;;;5101757;28;20445;-69
2023/03/20 02:26:34;;;;;;;8.47;7.23;;;;;5.40;96807.00;;;;5103077;28;21197;-69
2023/03/20 02:30:06;;;;;;;12.20;9.93;;;;;5.60;96808.00;;;;5100118;28;20421;-68
2023/03/20 02:33:28;;;;;;;10.70;7.80;;;;;5.40;96801.00;;;;5104181;28;20955;-68
2023/03/20 02:36:51;;;;;;;10.63;7.73;;;;;4.60;96802.00;;;;5097242;28;20433;-65
2023/03/20 02:39:49;;;;;;;9.50;8.33;;;;;4.40;96796.00;;;;5096312;28;20441;-65
2023/03/20 02:42:42;;;;;;;10.90;8.37;;;;;4.50;96793.00;;;;5095182;28;20515;-68
2023/03/20 02:45:38;;;;;;;10.57;8.23;;;;;4.70;96802.00;;;;5094012;28;20843;-68
2023/03/20 02:48:37;;;;;;;9.57;8.27;;;;;5.10;96801.00;;;;5099271;28;20466;-69
2023/03/20 02:51:34;;;;;;;12.57;8.20;;;;;5.10;96805.00;;;;5105404;28;20453;-68
2023/03/20 02:54:27;;;;;;;10.43;7.50;;;;;4.70;96801.00;;;;5107800;28;20861;-69
2023/03/20 02:57:20;;;;;;;11.10;7.63;;;;;3.90;96794.00;;;;5109215;27;20427;-68
2023/03/20 03:00:13;;;;;;;15.57;7.63;;;;;4.50;96797.00;;;;5107596;28;20452;-67
2023/03/20 03:03:07;;;;;;;10.60;8.27;;;;;5.20;96816.00;;;;5110154;28;20943;-69
2023/03/20 03:05:59;;;;;;;15.30;8.83;;;;;5.10;96811.00;;;;5105824;28;20420;-68
2023/03/20 03:08:50;;;;;;;9.37;8.37;;;;;5.20;96802.00;;;;5101499;28;20424;-68
2023/03/20 03:11:44;;;;;;;11.00;8.10;;;;;5.10;96807.00;;;;5101698;28;20445;-69
2023/03/20 03:14:39;;;;;;;9.37;8.30;;;;;5.00;96791.00;;;;5100074;28;20510;-67
2023/03/20 03:17:31;;;;;;;11.83;8.47;;;;;5.10;96793.00;;;;5097829;28;20475;-67
2023/03/20 03:20:23;;;;;;;7.93;6.57;;;;;4.70;96790.00;;;;5097376;28;20449;-68
2023/03/20 03:23:25;;;;;;;10.40;8.33;;;;;4.90;96798.00;;;;5094825;28;20433;-69
2023/03/20 03:26:18;;;;;;;8.87;6.87;;;;;4.50;96794.00;;;;5094799;28;20856;-68
2023/03/20 03:29:13;;;;;;;10.27;7.17;;;;;4.00;96800.00;;;;5097765;28;20432;-68
2023/03/20 03:32:05;;;;;;;7.80;6.87;;;;;4.20;96800.00;;;;5100037;28;20456;-69
2023/03/20 03:34:54;;;;;;;13.43;9.27;;;;;4.30;96806.00;;;;5108211;28;20459;-66
2023/03/20 03:37:50;;;;;;;12.23;8.17;;;;;4.20;96802.00;;;;5107300;28;20425;-69
2023/03/20 03:40:43;;;;;;;9.00;8.10;;;;;3.90;96799.00;;;;5106835;28;20879;-68
2023/03/20 03:43:34;;;;;;;7.53;5.30;;;;;3.70;96800.00;;;;5108175;28;20478;-69
2023/03/20 03:46:29;;;;;;;8.97;7.73;;;;;4.00;96807.00;;;;5096843;28;20429;-67
2023/03/20 03:49:22;;;;;;;7.47;6.73;;;;;4.10;96811.00;;;;5097997;28;20418;-68
2023/03/20 03:52:14;;;;;;;11.03;8.63;;;;;4.30;96808.00;;;;5100098;28;20478;-69
2023/03/20 03:55:06;;;;;;;8.97;8.03;;;;;4.40;96816.00;;;;5105973;28;20472;-69
2023/03/20 03:57:57;;;;;;;9.40;8.40;;;;;4.10;96814.00;;;;5103861;28;20425;-65
2023/03/20 04:00:49;;;;;;;10.87;8.43;;;;;4.10;96811.00;;;;5098692;28;20445;-65
2023/03/20 04:03:40;;;;;;;13.80;8.47;;;;;4.30;96824.00;;;;5104832;28;20438;-67
2023/03/20 04:06:31;;;;;;;9.20;8.27;;;;;4.40;96827.00;;;;5103274;28;20429;-67
2023/03/20 04:09:20;;;;;;;12.67;8.23;;;;;4.90;96825.00;;;;5100521;28;20428;-68
2023/03/20 04:12:26;;;;;;;9.73;7.83;;;;;4.80;96825.00;;;;5102638;28;20803;-69
2023/03/20 04:15:17;;;;;;;10.10;6.17;;;;;4.40;96830.00;;;;5102905;28;20541;-67
2023/03/20 04:18:06;;;;;;;8.37;6.87;;;;;3.90;96848.00;;;;5109182;28;20417;-68
2023/03/20 04:20:55;;;;;;;9.77;8.43;;;;;5.10;96839.00;;;;5103615;28;20444;-70
2023/03/20 04:23:45;;;;;;;13.53;9.27;;;;;4.90;96843.00;;;;5098221;28;20425;-69
2023/03/20 04:26:34;;;;;;;10.63;7.83;;;;;4.70;96839.00;;;;5102344;28;20424;-67
2023/03/20 04:29:23;;;;;;;11.83;9.57;;;;;4.80;96838.00;;;;5097644;28;20429;-68
2023/03/20 04:32:13;;;;;;;10.20;8.83;;;;;4.80;96839.00;;;;5097929;28;20440;-69
2023/03/20 04:35:02;;;;;;;14.30;9.70;;;;;5.20;96838.00;;;;5107837;28;20870;-69
2023/03/20 04:37:51;;;;;;;11.90;9.23;;;;;4.90;96840.00;;;;5104219;28;20436;-69
2023/03/20 04:40:41;;;;;;;10.03;7.20;;;;;4.80;96833.00;;;;5109129;28;20529;-69
2023/03/20 04:43:30;;;;;;;8.90;8.07;;;;;5.30;96843.00;;;;5104940;28;20478;-69
2023/03/20 04:46:19;;;;;;;20.17;8.87;;;;;5.30;96847.00;;;;5107298;28;20421;-69
2023/03/20 04:49:08;;;;;;;13.67;9.13;;;;;5.70;96857.00;;;;5098398;28;20422;-69
2023/03/20 04:51:57;;;;;;;10.50;7.43;;;;;5.40;96842.00;;;;5104707;28;20444;-70
2023/03/20 04:54:46;;;;;;;12.03;9.63;;;;;4.90;96847.00;;;;5102515;28;20436;-69
2023/03/20 04:57:36;;;;;;;9.37;7.87;;;;;5.40;96853.00;;;;5100243;28;20833;-68
2023/03/20 05:00:25;;;;;;;10.83;8.17;;;;;5.60;96852.00;;;;5101304;28;20467;-70
2023/03/20 05:03:14;;;;;;;12.17;8.00;;;;;5.80;96857.00;;;;5104232;28;21058;-70
2023/03/20 05:06:04;;;;;;;14.07;9.27;;;;;6.20;96854.00;;;;5104987;28;20436;-70
2023/03/20 05:08:53;;;;;;;12.20;8.30;;;;;6.30;96874.00;;;;5093987;28;20429;-70
2023/03/20 05:11:42;;;;;;;11.60;8.50;;;;;6.30;96868.00;;;;5099295;28;20898;-70
2023/03/20 05:14:32;;;;;;;11.13;8.73;;;;;6.00;96868.00;;;;5102655;28;21001;-70
2023/03/20 05:17:22;;;;;;;13.97;9.00;;;;;5.80;96869.00;;;;5091389;28;20504;-69
2023/03/20 05:20:11;;;;;;;11.40;8.30;;;;;5.80;96870.00;;;;5102151;28;20445;-70
2023/03/20 05:23:00;;;;;;;9.43;7.60;;;;;5.90;96876.00;;;;5107840;28;20496;-70
2023/03/20 05:25:49;;;;;;;10.07;7.73;;;;;5.90;96886.00;;;;5101699;28;20674;-70
2023/03/20 05:28:38;;;;;;;8.30;7.50;;;;;6.10;96885.00;;;;5099294;28;20943;-69
2023/03/20 05:31:28;;;;;;;10.60;8.57;;;;;6.00;96891.00;;;;5103211;28;20978;-68
2023/03/20 05:34:17;;;;;;;13.13;8.23;;;;;5.70;96894.00;;;;5102136;28;20298;-69
2023/03/20 05:37:06;;;;;;;8.87;7.37;;;;;5.90;96882.00;;;;5099036;28;20503;-69
2023/03/20 05:39:55;;;;;;;13.03;9.23;;;;;5.80;96883.00;;;;5101240;28;20448;-69
2023/03/20 05:42:45;;;;;;;9.77;8.80;;;;;5.80;96878.00;;;;5102470;28;20491;-70
2023/03/20 05:45:34;;;;;;;12.60;9.23;;;;;5.50;96887.00;;;;5098005;28;20493;-68
2023/03/20 05:48:25;;;;;;;10.30;8.97;;;;;5.60;96892.00;;;;5104651;28;20425;-69
2023/03/20 05:51:14;;;;;;;8.80;7.93;;;;;5.70;96894.00;;;;5105458;28;20471;-69
2023/03/20 05:54:03;;;;;;;10.07;8.60;;;;;5.70;96894.00;;;;5108177;28;20436;-69
2023/03/20 05:56:52;;;;;;;14.37;11.70;;;;;6.00;96892.00;;;;5104038;28;20757;-70
2023/03/20 05:59:41;;;;;;;18.73;9.10;;;;;6.20;96901.00;;;;5106650;28;20432;-69
2023/03/20 06:02:30;;;;;;;10.13;8.53;;;;;6.40;96896.00;;;;5104202;28;20206;-69
2023/03/20 06:05:21;;;;;;;12.03;10.83;;;;;6.80;96910.00;;;;5098278;28;20195;-69
2023/03/20 06:08:10;;;;;;;10.30;9.23;;;;;6.80;96920.00;;;;5106378;28;20194;-69
2023/03/20 06:10:59;;;;;;;11.70;9.50;;;;;6.90;96909.00;;;;5104119;28;20219;-69
2023/03/20 06:13:49;;;;;;;15.00;9.37;;;;;6.80;96910.00;;;;5107238;28;20234;-69
2023/03/20 06:16:38;;;;;;;11.43;9.20;;;;;6.70;96915.00;;;;5095776;28;20223;-69
2023/03/20 06:19:27;;;;;;;11.17;9.37;;;;;6.80;96910.00;;;;5092729;28;20206;-69
2023/03/20 06:22:17;;;;;;;15.60;10.33;;;;;7.00;96909.00;;;;5103375;28;20263;-69
2023/03/20 06:25:07;;;;;;;11.17;8.93;;;;;6.80;96905.00;;;;5094022;28;20235;-69
2023/03/20 06:27:56;;;;;;;13.40;9.20;;;;;6.50;96905.00;;;;5097147;28;20208;-69
2023/03/20 06:30:46;;;;;;;9.20;8.27;;;;;6.90;96914.00;;;;5095668;28;20304;-69
2023/03/20 06:33:35;;;;;;;10.43;8.77;;;;;6.80;96905.00;;;;5105735;28;20199;-70
2023/03/20 06:36:24;;;;;;;14.87;8.33;;;;;6.90;96914.00;;;;5106196;28;20717;-69
2023/03/20 06:39:15;;;;;;;14.70;8.13;;;;;7.10;96922.00;;;;5104636;28;20199;-69
2023/03/20 06:42:04;;;;;;;15.60;8.97;;;;;7.00;96912.00;;;;5107313;28;20214;-69
2023/03/20 06:44:53;;;;;;;11.17;9.07;;;;;6.90;96910.00;;;;5107768;28;20190;-69
2023/03/20 06:47:42;;;;;;;11.67;9.63;;;;;7.00;96908.00;;;;5105264;28;20198;-69
2023/03/20 06:50:31;;;;;;;18.63;12.33;;;;;7.30;96922.00;;;;5106719;28;20222;-69
2023/03/20 06:53:20;;;;;;;16.37;12.07;;;;;7.60;96921.00;;;;5099455;28;20217;-70
2023/03/20 06:56:11;;;;;;;11.97;10.33;;;;;7.80;96928.00;;;;5103442;28;20224;-70
2023/03/20 06:59:00;;;;;;;12.13;10.07;;;;;8.00;96929.00;;;;5099965;28;20205;-70
2023/03/20 07:01:49;;;;;;;13.37;10.40;;;;;7.80;96924.00;;;;5099597;28;20210;-70
2023/03/20 07:04:38;;;;;;;10.97;9.23;;;;;8.00;96941.00;;;;5099350;28;20230;-70
2023/03/20 07:07:27;;;;;;;11.47;9.30;;;;;8.00;96930.00;;;;5099734;28;20203;-70
2023/03/20 07:10:17;;;;;;;11.97;8.73;;;;;8.00;96929.00;;;;5095183;28;20303;-70
2023/03/20 07:13:08;;;;;;;11.27;9.50;;;;;8.00;96935.00;;;;5098495;28;20284;-69
2023/03/20 07:15:57;;;;;;;11.13;9.07;;;;;8.20;96941.00;;;;5096628;28;20645;-69
2023/03/20 07:18:52;;;;;;;12.37;10.00;;;;;8.50;96935.00;;;;5098725;28;20217;-70
2023/03/20 07:21:41;;;;;;;13.20;9.37;;;;;8.50;96934.00;;;;5099909;28;20230;-70
2023/03/20 07:24:31;;;;;;;14.10;10.00;;;;;8.50;96933.00;;;;5098032;28;20218;-70
2023/03/20 07:27:21;;;;;;;11.00;8.73;;;;;8.90;96943.00;;;;5098696;28;20259;-70
2023/03/20 07:30:12;;;;;;;17.27;10.87;;;;;8.90;96946.00;;;;5095236;28;20231;-70
2023/03/20 07:33:01;;;;;;;13.67;9.97;;;;;9.40;96959.00;;;;5092992;28;20709;-70
2023/03/20 07:35:53;;;;;;;16.97;9.23;;;;;9.50;96955.00;;;;5097347;28;20196;-70
2023/03/20 07:38:42;;;;;;;17.67;10.30;;;;;9.90;96959.00;;;;5103404;28;20206;-70
2023/03/20 07:41:31;;;;;;;12.57;9.37;;;;;10.20;96960.00;;;;5101652;28;20263;-70
2023/03/20 07:44:20;;;;;;;13.17;9.23;;;;;10.50;96961.00;;;;5096447;28;20293;-70
2023/03/20 07:47:11;;;;;;;18.47;11.53;;;;;10.80;96962.00;;;;5100211;28;20235;-70
2023/03/20 07:50:00;;;;;;;11.23;10.00;;;;;10.80;96972.00;;;;5099643;28;20297;-70
2023/03/20 07:52:50;;;;;;;14.43;10.33;;;;;10.70;96964.00;;;;5101251;28;20652;-70
2023/03/20 07:55:39;;;;;;;11.50;10.27;;;;;10.40;96961.00;;;;5101679;28;20198;-70
2023/03/20 07:58:28;;;;;;;12.07;9.30;;;;;11.00;96962.00;;;;5099002;28;20206;-70
2023/03/20 08:01:16;;;;;;;16.13;9.60;;;;;11.20;96963.00;;;;5099364;28;20227;-70
2023/03/20 08:04:07;;;;;;;10.97;9.17;;;;;11.10;96959.00;;;;5095542;28;20252;-70
2023/03/20 08:06:56;;;;;;;12.97;10.50;;;;;11.30;96968.00;;;;5100315;28;20230;-70
2023/03/20 08:09:45;;;;;;;14.00;9.37;;;;;11.90;96970.00;;;;5100781;27;20207;-70
2023/03/20 08:12:34;;;;;;;14.27;9.43;;;;;11.60;96968.00;;;;5100089;28;20693;-70
2023/03/20 08:15:23;;;;;;;15.37;10.23;;;;;12.20;96965.00;;;;5100807;28;20203;-70
2023/03/20 08:18:12;;;;;;;12.43;10.13;;;;;12.50;96964.00;;;;5099546;28;20756;-70
2023/03/20 08:21:03;;;;;;;13.07;9.10;;;;;12.70;96963.00;;;;5101059;28;20603;-70
2023/03/20 08:23:52;;;;;;;15.90;9.07;;;;;13.00;96960.00;;;;5100401;28;20271;-71
2023/03/20 08:26:41;;;;;;;16.60;9.43;;;;;12.90;96970.00;;;;5100287;28;20195;-71
2023/03/20 08:29:30;;;;;;;16.00;10.47;;;;;13.00;96958.00;;;;5100182;28;20206;-70
2023/03/20 08:32:19;;;;;;;11.33;9.20;;;;;12.50;96966.00;;;;5102228;28;20191;-69
2023/03/20 08:35:10;;;;;;;14.53;9.13;;;;;12.50;96974.00;;;;5099453;28;20226;-70
2023/03/20 08:38:15;;;;;;;12.77;8.73;;;;;12.50;96968.00;;;;5099834;28;20210;-71
2023/03/20 08:41:04;;;;;;;12.03;8.70;;;;;12.90;96971.00;;;;5100474;28;20299;-70
2023/03/20 08:43:53;;;;;;;14.80;9.87;;;;;13.40;96978.00;;;;5100859;28;20225;-70
2023/03/20 08:46:43;;;;;;;12.20;8.40;;;;;13.80;96980.00;;;;5100496;28;20712;-71
2023/03/20 08:49:32;;;;;;;11.73;9.40;;;;;13.20;96967.00;;;;5098886;28;20569;-71
2023/03/20 08:52:21;;;;;;;15.80;8.07;;;;;13.50;96988.00;;;;5099293;28;20214;-70
2023/03/20 08:55:12;;;;;;;13.37;8.57;;;;;13.70;96977.00;;;;5097270;28;20195;-71
2023/03/20 08:58:01;;;;;;;15.30;7.60;;;;;14.20;96998.00;;;;5097560;28;20233;-71
2023/03/20 09:00:50;;;;;;;15.67;8.37;;;;;14.60;96980.00;;;;5102032;28;20291;-71
2023/03/20 09:03:41;;;;;;;12.50;8.60;;;;;14.80;96980.00;;;;5097277;28;20211;-71
2023/03/20 09:06:30;;;;;;;16.27;8.40;;;;;14.60;96989.00;;;;5097587;28;20202;-70
2023/03/20 09:09:20;;;;;;;11.03;7.57;;;;;14.70;96987.00;;;;5096375;28;21075;-70
2023/03/20 09:12:10;;;;;;;9.83;8.47;;;;;14.60;96983.00;;;;5095394;28;20227;-70
2023/03/20 09:15:00;;;;;;;12.33;8.03;;;;;14.90;96990.00;;;;5100722;28;20214;-70
2023/03/20 09:17:49;;;;;;;11.40;7.90;;;;;15.00;97001.00;;;;5097772;28;20590;-70
2023/03/20 09:20:38;;;;;;;9.37;6.87;;;;;14.90;96999.00;;;;5099347;28;20227;-70
2023/03/20 09:23:27;;;;;;;9.43;7.90;;;;;15.20;96990.00;;;;5096649;28;20323;-70
2023/03/20 09:26:16;;;;;;;10.50;7.00;;;;;15.30;96999.00;;;;5099729;28;20198;-70
2023/03/20 09:29:06;;;;;;;13.23;7.83;;;;;15.50;97004.00;;;;5098692;28;20662;-70
2023/03/20 09:31:55;;;;;;;10.77;8.33;;;;;15.60;97001.00;;;;5098738;28;20785;-70
2023/03/20 09:34:44;;;;;;;11.93;7.63;;;;;15.80;96987.00;;;;5101645;27;20252;-70
2023/03/20 09:37:33;;;;;;;11.23;7.73;;;;;15.90;96993.00;;;;5100017;28;20250;-70
2023/03/20 09:40:25;;;;;;;12.23;7.70;;;;;16.10;96996.00;;;;5096234;28;20237;-70
2023/03/20 09:43:27;;;;;;;13.63;8.00;;;;;16.20;96993.00;;;;5098537;28;20211;-70
2023/03/20 09:46:29;;;;;;;11.77;6.63;;;;;16.40;96999.00;;;;5101982;28;20195;-70
2023/03/20 09:49:24;;;;;;;10.93;8.23;;;;;16.40;96997.00;;;;5100860;28;20286;-70
2023/03/20 09:52:22;;;;;;;10.83;6.97;;;;;16.50;96998.00;;;;5098484;28;20200;-70
2023/03/20 09:55:15;;;;;;;12.43;6.97;;;;;16.60;96992.00;;;;5097374;28;20210;-70
2023/03/20 09:58:12;;;;;;;9.50;7.00;;;;;16.70;97003.00;;;;5097926;28;20226;-70
2023/03/20 10:01:04;;;;;;;8.87;6.40;;;;;16.80;97002.00;;;;5098778;28;20268;-70
2023/03/20 10:03:57;;;;;;;15.27;7.53;;;;;16.90;97007.00;;;;5100377;28;20195;-70
2023/03/20 10:06:46;;;;;;;14.10;6.93;;;;;16.80;97004.00;;;;5099777;28;20675;-70
2023/03/20 10:09:35;;;;;;;14.93;6.23;;;;;16.80;97003.00;;;;5096084;28;20194;-70
2023/03/20 10:12:32;;;;;;;13.53;6.50;;;;;17.00;96999.00;;;;5099627;27;20567;-70
2023/03/20 10:15:28;;;;;;;7.87;6.00;;;;;17.10;97011.00;;;;5099213;28;20203;-70
2023/03/20 10:18:23;;;;;;;20.60;6.70;;;;;17.20;97007.00;;;;5097415;28;20258;-70
2023/03/20 10:21:17;;;;;;;17.70;6.63;;;;;17.30;97001.00;;;;5098976;28;20226;-70
2023/03/20 10:24:10;;;;;;;12.63;6.07;;;;;17.20;97011.00;;;;5099695;28;20199;-70
2023/03/20 10:27:02;;;;;;;9.93;7.00;;;;;17.40;97002.00;;;;5098770;28;20199;-71
2023/03/20 10:29:59;;;;;;;12.93;5.50;;;;;17.50;97010.00;;;;5101141;28;20279;-70
2023/03/20 10:32:52;;;;;;;15.33;6.50;;;;;17.50;97005.00;;;;5095465;28;20199;-70
2023/03/20 10:35:46;;;;;;;13.67;6.40;;;;;17.50;97005.00;;;;5095528;28;20202;-70
2023/03/20 10:38:41;;;;;;;9.53;6.60;;;;;17.60;97001.00;;;;5096345;28;20728;-70
2023/03/20 10:41:33;;;;;;;13.50;6.13;;;;;17.70;96997.00;;;;5096739;28;20221;-70
2023/03/20 10:44:29;;;;;;;12.30;6.87;;;;;17.90;96979.00;;;;5097366;28;20252;-70
2023/03/20 10:47:21;;;;;;;38.10;18.13;;;;;18.10;96989.00;;;;5096897;28;20206;-70
2023/03/20 10:50:15;;;;;;;20.40;11.33;;;;;18.30;96980.00;;;;5097772;28;20214;-70
2023/03/20 10:53:05;;;;;;;15.87;9.70;;;;;18.40;96982.00;;;;5097265;28;20211;-70
2023/03/20 10:55:59;;;;;;;15.43;7.60;;;;;18.80;96978.00;;;;5098942;28;20210;-71
2023/03/20 10:58:53;;;;;;;7.00;6.30;;;;;18.70;96989.00;;;;5094832;28;20707;-70
2023/03/20 11:01:42;;;;;;;8.93;5.40;;;;;18.40;96975.00;;;;5096442;28;20222;-72
2023/03/20 11:04:31;;;;;;;7.17;5.30;;;;;18.40;96978.00;;;;5100283;28;20199;-72
2023/03/20 11:07:25;;;;;;;8.13;4.50;;;;;18.70;96978.00;;;;5097921;28;20674;-71
2023/03/20 11:10:16;;;;;;;7.43;4.30;;;;;18.40;96973.00;;;;5096715;28;20226;-72
2023/03/20 11:13:22;;;;;;;6.77;4.00;;;;;18.00;96974.00;;;;5101753;28;20692;-72
2023/03/20 11:16:18;;;;;;;6.80;4.10;;;;;18.30;96971.00;;;;5098451;28;20226;-72
2023/03/20 11:19:10;;;;;;;4.80;3.77;;;;;18.50;96972.00;;;;5102520;28;20569;-72
2023/03/20 11:22:03;;;;;;;8.17;3.93;;;;;18.50;96969.00;;;;5099444;28;20692;-72
2023/03/20 11:24:54;;;;;;;6.70;2.77;;;;;18.50;96970.00;;;;5096885;28;20295;-72
2023/03/20 11:27:43;;;;;;;5.90;3.80;;;;;18.40;96962.00;;;;5100722;28;20665;-72
2023/03/20 11:30:33;;;;;;;4.43;3.60;;;;;18.60;96971.00;;;;5102995;28;20214;-72
2023/03/20 11:33:22;;;;;;;11.20;4.53;;;;;18.40;96965.00;;;;5100403;28;20303;-72
2023/03/20 11:36:18;;;;;;;5.37;3.33;;;;;18.40;96970.00;;;;5101223;28;20275;-72
2023/03/20 11:39:11;;;;;;;8.67;3.77;;;;;18.30;96966.00;;;;5097348;28;20275;-72
2023/03/20 11:42:01;;;;;;;6.13;4.40;;;;;18.40;96960.00;;;;5099733;28;20210;-72
2023/03/20 11:44:58;;;;;;;3.33;2.50;;;;;18.50;96964.00;;;;5101378;28;20676;-72
2023/03/20 11:47:53;;;;;;;2.73;2.40;;;;;18.70;96963.00;;;;5100779;28;20203;-72
2023/03/20 11:50:45;;;;;;;4.83;2.13;;;;;18.80;96954.00;;;;5100195;28;20223;-71
2023/03/20 11:53:37;;;;;;;3.73;2.43;;;;;18.80;96957.00;;;;5098953;28;20226;-71
2023/03/20 11:56:28;;;;;;;8.87;2.53;;;;;19.10;96953.00;;;;5101936;28;20243;-71
2023/03/20 11:59:17;;;;;;;2.63;2.27;;;;;19.30;96955.00;;;;5102243;28;20219;-71
2023/03/20 12:02:19;;;;;;;2.80;2.20;;;;;19.00;96949.00;;;;5099349;28;20219;-70
2023/03/20 12:05:28;;;;;;;3.80;2.73;;;;;19.30;96936.00;;;;5097774;28;20271;-70
2023/03/20 12:08:21;;;;;;;2.53;1.70;;;;;19.70;96937.00;;;;5099623;27;20206;-70
2023/03/20 12:11:33;;;;;;;2.10;1.90;;;;;20.30;96936.00;;;;5101484;28;20307;-69
2023/03/20 12:14:28;;;;;;;5.90;1.93;;;;;20.40;96925.00;;;;5097354;28;20214;-70
2023/03/20 12:17:43;;;;;;;2.63;2.00;;;;;20.50;96930.00;;;;5098144;28;20195;-69
2023/03/20 12:20:38;;;;;;;2.37;1.93;;;;;20.70;96932.00;;;;5102701;28;20476;-69
2023/03/20 12:23:32;;;;;;;2.10;1.90;;;;;20.70;96926.00;;;;5097361;28;20200;-69
2023/03/20 12:26:27;;;;;;;2.50;1.67;;;;;20.60;96926.00;;;;5101167;28;20285;-70
2023/03/20 12:29:26;;;;;;;1.80;1.57;;;;;20.10;96924.00;;;;5101207;28;20563;-70
2023/03/20 12:32:20;;;;;;;1.57;1.47;;;;;20.30;96917.00;;;;5099205;28;20228;-70
2023/03/20 12:35:13;;;;;;;1.70;1.60;;;;;20.20;96919.00;;;;5096936;28;20208;-72
2023/03/20 12:38:11;;;;;;;4.40;1.83;;;;;20.10;96913.00;;;;5099656;28;20207;-72
2023/03/20 12:41:09;;;;;;;3.97;1.77;;;;;19.70;96912.00;;;;5100561;28;20269;-70
2023/03/20 12:44:16;;;;;;;3.03;1.73;;;;;19.60;96907.00;;;;5101015;28;20624;-70
2023/03/20 12:47:23;;;;;;;4.80;1.57;;;;;18.80;96900.00;;;;5101179;28;20214;-70
2023/03/20 12:50:18;;;;;;;4.10;2.10;;;;;19.30;96905.00;;;;5099738;28;20218;-70
2023/03/20 12:53:34;;;;;;;2.97;1.87;;;;;19.30;96907.00;;;;5100705;27;20195;-70
2023/03/20 12:56:32;;;;;;;1.73;1.57;;;;;19.30;96914.00;;;;5098698;28;20207;-70
2023/03/20 12:59:26;;;;;;;2.60;1.90;;;;;19.30;96915.00;;;;5100904;28;20725;-70
2023/03/20 13:02:30;;;;;;;2.17;1.90;;;;;19.20;96908.00;;;;5100121;28;20295;-70
2023/03/20 13:05:31;;;;;;;2.90;1.90;;;;;18.80;96901.00;;;;5098666;28;20660;-70
2023/03/20 13:08:58;;;;;;;2.50;2.17;;;;;17.70;96896.00;;;;5097468;28;20611;-70
2023/03/20 13:11:51;;;;;;;2.50;2.03;;;;;18.20;96898.00;;;;5093910;28;20230;-70
2023/03/20 13:14:45;;;;;;;2.17;1.93;;;;;18.80;96899.00;;;;5097801;28;20233;-70
2023/03/20 13:17:39;;;;;;;2.00;1.73;;;;;18.50;96889.00;;;;5101255;28;20226;-69
2023/03/20 13:20:31;;;;;;;3.07;1.83;;;;;18.90;96884.00;;;;5098491;28;20245;-69
2023/03/20 13:23:24;;;;;;;1.80;1.70;;;;;18.90;96887.00;;;;5100495;28;21356;-70
2023/03/20 13:26:21;;;;;;;2.57;1.70;;;;;19.00;96882.00;;;;5100410;28;20252;-70
2023/03/20 13:29:15;;;;;;;1.47;1.33;;;;;18.80;96883.00;;;;5096667;28;20202;-70
2023/03/20 13:32:13;;;;;;;2.13;1.40;;;;;18.40;96879.00;;;;5097384;28;20263;-70
2023/03/20 13:35:15;;;;;;;1.67;1.20;;;;;18.30;96877.00;;;;5097633;28;20226;-69
2023/03/20 13:38:10;;;;;;;4.53;1.93;;;;;18.70;96887.00;;;;5096782;28;20646;-70
2023/03/20 13:41:02;;;;;;;1.47;1.27;;;;;18.90;96891.00;;;;5092723;28;20716;-69
2023/03/20 13:43:57;;;;;;;2.20;1.50;;;;;17.50;96883.00;;;;5100015;28;20203;-68
2023/03/20 13:46:48;;;;;;;11.40;6.27;;;;;18.60;96885.00;;;;5099099;28;20199;-69
2023/03/20 13:49:38;;;;;;;2.47;1.97;;;;;18.60;96881.00;;;;5097287;28;20195;-69
2023/03/20 13:52:30;;;;;;;3.73;1.70;;;;;18.60;96886.00;;;;5097796;28;20217;-70
2023/03/20 13:55:24;;;;;;;4.60;1.90;;;;;18.80;96882.00;;;;5097619;28;20268;-69
2023/03/20 13:58:25;;;;;;;4.13;3.13;;;;;19.20;96885.00;;;;5094859;28;20568;-69
2023/03/20 14:01:22;;;;;;;3.93;2.43;;;;;19.30;96874.00;;;;5095114;28;20271;-69
2023/03/20 14:04:15;;;;;;;3.47;1.90;;;;;19.30;96884.00;;;;5097304;28;20213;-69
2023/03/20 14:07:28;;;;;;;2.70;1.90;;;;;19.00;96884.00;;;;5092771;28;20198;-71
2023/03/20 14:10:36;;;;;;;1.57;1.43;;;;;19.30;96887.00;;;;5099576;28;20342;-70
2023/03/20 14:13:26;;;;;;;1.50;1.40;;;;;19.10;96888.00;;;;5099472;28;20218;-70
2023/03/20 14:16:19;;;;;;;4.20;1.57;;;;;19.30;96888.00;;;;5097411;28;20199;-70
2023/03/20 14:19:15;;;;;;;1.50;1.33;;;;;19.30;96873.00;;;;5097466;28;20206;-70
2023/03/20 14:22:05;;;;;;;6.20;2.00;;;;;19.20;96876.00;;;;5097249;28;20604;-67